Time;durP1;ratioP1;P1;durP2;ratioP2;P2;SDS_P1;SDS_P2;PMS_P1;PMS_P2;Temp;Humidity;BMP_temperature;BMP_pressure;BME280_temperature;BME280_humidity;BME280_pressure;Samples;Min_cycle;Max_cycle;Signal;HPM_P1;HPM_P2
2022/11/13 00:00:33;;;;;;;57.35;48.13;;;5.70;91.60;;;;;;5045544;28;20040;-74
2022/11/13 00:02:58;;;;;;;57.83;49.05;;;5.70;91.60;;;;;;5048885;28;20044;-70
2022/11/13 00:05:24;;;;;;;55.90;46.13;;;5.70;91.60;;;;;;5047854;28;20029;-69
2022/11/13 00:07:50;;;;;;;56.00;46.15;;;5.70;91.70;;;;;;5027375;28;20041;-73
2022/11/13 00:10:16;;;;;;;57.05;46.38;;;5.70;91.60;;;;;;5047239;28;20056;-70
2022/11/13 00:12:41;;;;;;;51.20;43.58;;;5.60;91.60;;;;;;5043543;28;20037;-70
2022/11/13 00:15:07;;;;;;;53.78;43.85;;;5.60;91.70;;;;;;5045400;28;20239;-70
2022/11/13 00:17:33;;;;;;;52.45;43.85;;;5.60;91.70;;;;;;5046369;28;20033;-71
2022/11/13 00:19:59;;;;;;;55.00;44.70;;;5.60;91.60;;;;;;5049109;28;20059;-69
2022/11/13 00:22:24;;;;;;;55.72;45.38;;;5.60;91.40;;;;;;5047424;28;20039;-72
2022/11/13 00:24:50;;;;;;;52.60;43.50;;;5.60;91.40;;;;;;5049516;28;20025;-71
2022/11/13 00:27:15;;;;;;;50.90;42.38;;;5.60;91.40;;;;;;5038763;28;20436;-71
2022/11/13 00:29:41;;;;;;;52.38;41.42;;;5.60;91.40;;;;;;5024805;28;20036;-72
2022/11/13 00:32:06;;;;;;;48.38;40.72;;;5.60;91.50;;;;;;5022883;28;20156;-70
2022/11/13 00:34:32;;;;;;;50.88;40.83;;;5.60;91.40;;;;;;5048399;28;20116;-71
2022/11/13 00:36:58;;;;;;;48.22;40.25;;;5.60;91.50;;;;;;5043942;28;20044;-70
2022/11/13 00:39:23;;;;;;;49.22;41.28;;;5.60;91.50;;;;;;5022506;28;20041;-69
2022/11/13 00:41:49;;;;;;;48.63;41.67;;;5.60;91.50;;;;;;5028729;28;20115;-74
2022/11/13 00:44:14;;;;;;;49.42;41.17;;;5.50;91.40;;;;;;5027751;28;20037;-70
2022/11/13 00:46:40;;;;;;;48.03;40.85;;;5.60;91.30;;;;;;5039412;28;20512;-70
2022/11/13 00:49:06;;;;;;;47.65;41.70;;;5.50;91.20;;;;;;5049858;28;20113;-71
2022/11/13 00:51:31;;;;;;;53.58;42.90;;;5.40;91.10;;;;;;5041743;28;20412;-70
2022/11/13 00:53:57;;;;;;;51.03;41.83;;;5.40;91.10;;;;;;5040238;28;20033;-73
2022/11/13 00:56:23;;;;;;;50.67;42.63;;;5.40;91.10;;;;;;5029829;28;20037;-74
2022/11/13 00:58:48;;;;;;;48.60;42.50;;;5.30;91.20;;;;;;5047414;28;20037;-70
2022/11/13 01:01:16;;;;;;;49.83;41.78;;;5.40;91.20;;;;;;5028910;28;20508;-70
2022/11/13 01:03:42;;;;;;;55.95;46.65;;;5.30;91.30;;;;;;5048363;28;20033;-72
2022/11/13 01:06:16;;;;;;;52.13;43.47;;;5.30;91.30;;;;;;5028950;28;20037;-69
2022/11/13 01:08:42;;;;;;;48.55;39.70;;;5.30;91.40;;;;;;5026193;28;20029;-71
2022/11/13 01:11:10;;;;;;;50.63;42.28;;;5.30;91.40;;;;;;5045235;28;20037;-70
2022/11/13 01:13:35;;;;;;;49.90;42.05;;;5.30;91.40;;;;;;5040292;28;20536;-70
2022/11/13 01:16:05;;;;;;;48.85;41.70;;;5.30;91.30;;;;;;5023699;28;20133;-71
2022/11/13 01:18:31;;;;;;;51.42;41.92;;;5.30;91.30;;;;;;5047025;28;20033;-73
2022/11/13 01:21:04;;;;;;;48.83;41.10;;;5.30;91.20;;;;;;5035648;28;20521;-69
2022/11/13 01:23:30;;;;;;;50.17;42.45;;;5.30;91.20;;;;;;5028359;28;20136;-69
2022/11/13 01:26:13;;;;;;;53.13;43.25;;;5.30;91.30;;;;;;5025748;28;20367;-72
2022/11/13 01:28:41;;;;;;;49.80;41.78;;;5.30;91.30;;;;;;5023044;28;20121;-71
2022/11/13 01:31:09;;;;;;;51.28;42.15;;;5.30;91.30;;;;;;5020629;28;20492;-70
2022/11/13 01:33:34;;;;;;;56.08;44.92;;;5.30;91.10;;;;;;5027985;28;20040;-71
2022/11/13 01:36:07;;;;;;;56.08;44.38;;;5.30;91.10;;;;;;5025319;28;20464;-70
2022/11/13 01:38:33;;;;;;;55.47;43.03;;;5.20;91.00;;;;;;5019183;28;20479;-73
2022/11/13 01:40:59;;;;;;;63.60;45.28;;;5.20;91.10;;;;;;5026732;28;20092;-70
2022/11/13 01:43:28;;;;;;;65.85;46.90;;;5.30;91.20;;;;;;5020052;28;20033;-72
2022/11/13 01:46:02;;;;;;;65.00;45.97;;;5.30;91.10;;;;;;5018126;28;20279;-74
2022/11/13 01:48:44;;;;;;;58.33;43.58;;;5.30;91.10;;;;;;5018486;28;20038;-70
2022/11/13 01:51:19;;;;;;;60.05;44.67;;;5.30;91.10;;;;;;5022938;28;20045;-70
2022/11/13 01:53:47;;;;;;;58.42;45.53;;;5.30;91.00;;;;;;5017504;28;20046;-70
2022/11/13 01:56:14;;;;;;;55.65;43.72;;;5.20;91.00;;;;;;5018755;28;20467;-70
2022/11/13 01:58:43;;;;;;;53.92;42.85;;;5.20;91.10;;;;;;5023443;28;20258;-70
2022/11/13 02:01:09;;;;;;;50.83;41.95;;;5.30;91.30;;;;;;5022074;28;20112;-71
2022/11/13 02:03:34;;;;;;;54.25;43.72;;;5.30;91.20;;;;;;5015773;28;20124;-70
2022/11/13 02:06:00;;;;;;;52.22;41.47;;;5.30;91.20;;;;;;5020429;28;20044;-70
2022/11/13 02:08:27;;;;;;;113.75;49.83;;;5.30;91.30;;;;;;5018866;28;20038;-70
2022/11/13 02:10:52;;;;;;;56.20;41.45;;;5.30;91.50;;;;;;5030927;28;20049;-70
2022/11/13 02:13:20;;;;;;;53.78;40.72;;;5.30;91.70;;;;;;5022919;28;20104;-70
2022/11/13 02:15:46;;;;;;;50.50;38.17;;;5.30;91.70;;;;;;5026828;28;20375;-70
2022/11/13 02:18:14;;;;;;;54.65;41.05;;;5.40;91.80;;;;;;5016263;28;20495;-70
2022/11/13 02:20:44;;;;;;;80.80;46.35;;;5.40;91.80;;;;;;5023505;28;20049;-71
2022/11/13 02:23:23;;;;;;;82.22;46.17;;;5.40;91.80;;;;;;5014884;28;20167;-69
2022/11/13 02:25:52;;;;;;;77.47;44.95;;;5.40;91.90;;;;;;5022743;28;20034;-71
2022/11/13 02:28:18;;;;;;;63.33;41.15;;;5.40;91.90;;;;;;5021915;28;20029;-70
2022/11/13 02:30:43;;;;;;;61.45;40.72;;;5.40;92.00;;;;;;5016168;28;20060;-70
2022/11/13 02:33:31;;;;;;;47.95;38.55;;;5.40;92.00;;;;;;5017491;28;20103;-72
2022/11/13 02:35:58;;;;;;;48.35;37.92;;;5.40;92.10;;;;;;5022077;28;20064;-69
2022/11/13 02:38:23;;;;;;;49.63;37.33;;;5.40;92.10;;;;;;5020103;28;20061;-70
2022/11/13 02:40:49;;;;;;;48.97;37.83;;;5.40;92.10;;;;;;5027596;28;20069;-71
2022/11/13 02:43:14;;;;;;;44.88;35.40;;;5.40;92.00;;;;;;5024327;28;20038;-69
2022/11/13 02:45:40;;;;;;;55.30;38.38;;;5.40;91.90;;;;;;5026963;28;20037;-71
2022/11/13 02:48:06;;;;;;;46.30;35.67;;;5.40;91.70;;;;;;5018138;28;20473;-70
2022/11/13 02:50:33;;;;;;;50.88;37.75;;;5.30;91.70;;;;;;5019378;28;20033;-69
2022/11/13 02:53:00;;;;;;;61.05;44.42;;;5.30;91.70;;;;;;5023990;28;20051;-70
2022/11/13 02:55:25;;;;;;;54.45;40.78;;;5.30;91.70;;;;;;5016263;28;20034;-69
2022/11/13 02:57:51;;;;;;;57.47;40.75;;;5.30;91.70;;;;;;5018968;28;20087;-70
2022/11/13 03:00:17;;;;;;;61.13;41.22;;;5.20;91.70;;;;;;5022470;28;20116;-70
2022/11/13 03:02:42;;;;;;;46.30;36.47;;;5.20;91.60;;;;;;5021400;28;20041;-69
2022/11/13 03:05:08;;;;;;;47.15;37.67;;;5.20;91.70;;;;;;5016513;28;20064;-72
2022/11/13 03:07:34;;;;;;;41.72;33.85;;;5.10;91.80;;;;;;5018228;28;20115;-70
2022/11/13 03:09:59;;;;;;;46.95;36.50;;;5.10;91.90;;;;;;5030091;28;20382;-70
2022/11/13 03:12:25;;;;;;;51.33;38.85;;;5.10;92.00;;;;;;5027315;28;20072;-71
2022/11/13 03:14:51;;;;;;;51.85;38.25;;;5.10;92.10;;;;;;5023436;28;20461;-70
2022/11/13 03:17:16;;;;;;;90.50;42.00;;;5.10;92.20;;;;;;5022582;28;20026;-71
2022/11/13 03:19:42;;;;;;;56.67;39.28;;;5.10;92.20;;;;;;5020485;28;20091;-70
2022/11/13 03:22:08;;;;;;;49.38;38.67;;;5.10;92.20;;;;;;5025112;28;20021;-69
2022/11/13 03:24:33;;;;;;;44.90;35.83;;;5.00;92.20;;;;;;5020882;28;20069;-70
2022/11/13 03:26:59;;;;;;;46.15;36.30;;;5.00;92.30;;;;;;5025360;28;20041;-70
2022/11/13 03:29:24;;;;;;;45.13;35.88;;;5.00;92.40;;;;;;5007718;28;20025;-73
2022/11/13 03:31:50;;;;;;;49.97;37.08;;;5.00;92.40;;;;;;5024132;28;20328;-69
2022/11/13 03:34:16;;;;;;;65.13;37.33;;;5.00;92.40;;;;;;5008535;28;20393;-69
2022/11/13 03:36:41;;;;;;;48.85;37.03;;;5.00;92.40;;;;;;5021593;28;20095;-75
2022/11/13 03:39:07;;;;;;;46.50;35.90;;;5.00;92.40;;;;;;5025620;28;20037;-69
2022/11/13 03:41:33;;;;;;;45.80;36.50;;;5.00;92.40;;;;;;5032006;28;20048;-75
2022/11/13 03:43:58;;;;;;;44.75;34.97;;;5.00;92.50;;;;;;5031674;28;20050;-70
2022/11/13 03:46:24;;;;;;;48.33;36.40;;;5.00;92.50;;;;;;5031053;28;20030;-69
2022/11/13 03:48:50;;;;;;;42.47;32.63;;;4.90;92.40;;;;;;5020767;28;20466;-70
2022/11/13 03:51:15;;;;;;;46.33;35.38;;;4.90;92.40;;;;;;5022023;28;20040;-70
2022/11/13 03:53:41;;;;;;;41.70;34.63;;;4.90;92.40;;;;;;5019272;28;20041;-73
2022/11/13 03:56:07;;;;;;;41.08;32.92;;;4.90;92.50;;;;;;5025241;28;20041;-70
2022/11/13 03:58:32;;;;;;;80.68;37.72;;;4.90;92.50;;;;;;5007051;28;20466;-70
2022/11/13 04:00:58;;;;;;;45.55;34.97;;;4.80;92.40;;;;;;5026168;28;20025;-73
2022/11/13 04:03:24;;;;;;;43.45;36.05;;;4.80;92.40;;;;;;5024235;28;20025;-72
2022/11/13 04:05:50;;;;;;;44.95;35.60;;;4.90;92.50;;;;;;5025733;28;20426;-70
2022/11/13 04:08:16;;;;;;;50.47;34.97;;;4.90;92.50;;;;;;5006785;28;20091;-71
2022/11/13 04:10:42;;;;;;;45.85;35.83;;;4.90;92.30;;;;;;5001348;28;20551;-70
2022/11/13 04:13:08;;;;;;;48.92;34.72;;;4.90;92.30;;;;;;5024503;28;20052;-71
2022/11/13 04:15:34;;;;;;;44.30;33.97;;;4.90;92.30;;;;;;5005877;28;20405;-71
2022/11/13 04:18:00;;;;;;;45.05;33.83;;;4.90;92.20;;;;;;5017401;28;20045;-71
2022/11/13 04:20:29;;;;;;;72.65;36.60;;;4.90;92.20;;;;;;5006188;28;20068;-70
2022/11/13 04:22:58;;;;;;;53.15;34.47;;;4.90;92.10;;;;;;5007869;28;20548;-69
2022/11/13 04:25:24;;;;;;;41.65;33.97;;;4.90;92.20;;;;;;5025202;28;20037;-73
2022/11/13 04:27:50;;;;;;;41.40;34.67;;;4.90;92.20;;;;;;5006292;28;20029;-69
2022/11/13 04:30:16;;;;;;;43.42;34.88;;;5.00;92.30;;;;;;5024776;28;20030;-71
2022/11/13 04:32:42;;;;;;;49.40;37.42;;;5.00;92.30;;;;;;5006921;28;20060;-69
2022/11/13 04:35:08;;;;;;;45.20;35.25;;;5.10;92.40;;;;;;5027414;28;20026;-72
2022/11/13 04:37:33;;;;;;;75.22;38.85;;;5.10;92.40;;;;;;5008321;28;20037;-70
2022/11/13 04:39:59;;;;;;;45.13;35.35;;;5.00;92.40;;;;;;5029309;28;20430;-70
2022/11/13 04:45:09;;;;;;;44.50;34.63;;;5.10;92.40;;;;;;5025456;28;20060;-73
2022/11/13 04:47:35;;;;;;;47.58;37.00;;;5.10;92.50;;;;;;5027203;28;20470;-69
2022/11/13 04:50:01;;;;;;;43.38;36.03;;;5.10;92.50;;;;;;5029211;28;20025;-71
2022/11/13 04:52:27;;;;;;;42.63;35.33;;;5.20;92.50;;;;;;5009803;28;20571;-70
2022/11/13 04:54:53;;;;;;;41.75;32.83;;;5.20;92.50;;;;;;5027649;28;20033;-70
2022/11/13 04:57:19;;;;;;;48.30;35.28;;;5.20;92.50;;;;;;5010266;28;21303;-72
2022/11/13 04:59:45;;;;;;;43.97;34.65;;;5.20;92.50;;;;;;5026809;28;20117;-71
2022/11/13 05:02:10;;;;;;;85.75;41.88;;;5.20;92.60;;;;;;5007532;28;20065;-72
2022/11/13 05:04:36;;;;;;;44.53;34.70;;;5.20;92.50;;;;;;5028978;28;20018;-72
2022/11/13 05:07:02;;;;;;;42.78;34.70;;;5.10;92.50;;;;;;5027706;28;20034;-68
2022/11/13 05:09:27;;;;;;;43.45;34.88;;;5.10;92.50;;;;;;5007407;28;20472;-69
2022/11/13 05:11:53;;;;;;;41.92;34.53;;;5.20;92.60;;;;;;5009811;28;20117;-71
2022/11/13 05:14:18;;;;;;;47.95;36.03;;;5.20;92.60;;;;;;5009986;28;20080;-71
2022/11/13 05:16:44;;;;;;;43.17;34.25;;;5.20;92.70;;;;;;5027218;28;20061;-70
2022/11/13 05:19:10;;;;;;;44.60;34.25;;;5.20;92.60;;;;;;5020922;28;20052;-69
2022/11/13 05:21:37;;;;;;;46.83;35.67;;;5.30;92.60;;;;;;5022967;28;20418;-70
2022/11/13 05:24:04;;;;;;;43.20;34.70;;;5.20;92.50;;;;;;5027590;28;20417;-70
2022/11/13 05:26:30;;;;;;;57.53;39.95;;;5.20;92.50;;;;;;5022319;28;20121;-70
2022/11/13 05:28:57;;;;;;;45.05;36.20;;;5.20;92.50;;;;;;5025677;28;20377;-70
2022/11/13 05:31:24;;;;;;;59.78;39.00;;;5.20;92.60;;;;;;5020417;28;20026;-70
2022/11/13 05:33:49;;;;;;;45.95;35.45;;;5.20;92.60;;;;;;5021202;28;20041;-72
2022/11/13 05:36:17;;;;;;;47.70;36.70;;;5.30;92.60;;;;;;5026186;28;20474;-70
2022/11/13 05:38:43;;;;;;;68.72;39.92;;;5.20;92.70;;;;;;5027666;28;20041;-71
2022/11/13 05:41:18;;;;;;;45.13;33.17;;;5.30;92.70;;;;;;5025504;28;20033;-70
2022/11/13 05:43:44;;;;;;;45.78;34.38;;;5.30;92.70;;;;;;5022300;28;20041;-71
2022/11/13 05:46:21;;;;;;;46.90;33.75;;;5.30;92.80;;;;;;5024335;28;20109;-71
2022/11/13 05:48:51;;;;;;;46.63;35.75;;;5.40;92.80;;;;;;5024458;28;20049;-70
2022/11/13 05:51:20;;;;;;;62.55;36.47;;;5.30;92.80;;;;;;5024636;28;20038;-70
2022/11/13 05:53:45;;;;;;;44.17;35.40;;;5.30;92.80;;;;;;5027709;28;20474;-70
2022/11/13 05:56:14;;;;;;;43.45;35.35;;;5.30;92.90;;;;;;5023751;28;20048;-70
2022/11/13 05:58:41;;;;;;;41.60;34.15;;;5.30;92.80;;;;;;5027494;28;20025;-69
2022/11/13 06:01:47;;;;;;;37.58;32.17;;;5.30;92.70;;;;;;5021122;28;20080;-70
2022/11/13 06:04:13;;;;;;;37.28;31.75;;;5.30;92.70;;;;;;4985058;28;20370;-71
2022/11/13 06:06:38;;;;;;;40.05;33.15;;;5.20;92.70;;;;;;4967295;28;20030;-69
2022/11/13 06:09:05;;;;;;;39.72;33.40;;;5.30;92.60;;;;;;4993609;28;20033;-71
2022/11/13 06:11:31;;;;;;;48.63;35.45;;;5.20;92.70;;;;;;5025646;28;20061;-70
2022/11/13 06:13:58;;;;;;;53.83;35.75;;;5.20;92.60;;;;;;5025587;28;20121;-69
2022/11/13 06:16:28;;;;;;;42.85;34.72;;;5.10;92.70;;;;;;5022539;28;20545;-73
2022/11/13 06:18:56;;;;;;;41.78;34.05;;;5.20;92.70;;;;;;5020012;28;20045;-70
2022/11/13 06:21:25;;;;;;;39.40;33.25;;;5.20;92.60;;;;;;5019215;28;20053;-69
2022/11/13 06:23:51;;;;;;;39.92;33.15;;;5.10;92.70;;;;;;5020194;28;20044;-69
2022/11/13 06:26:22;;;;;;;44.72;34.38;;;5.10;92.70;;;;;;5023621;28;20029;-70
2022/11/13 06:28:48;;;;;;;41.58;34.97;;;5.10;92.70;;;;;;5021814;28;20482;-69
2022/11/13 06:31:34;;;;;;;40.30;33.05;;;5.10;92.60;;;;;;5027085;28;20056;-70
2022/11/13 06:34:01;;;;;;;40.63;33.15;;;5.10;92.60;;;;;;5020669;28;20072;-69
2022/11/13 06:36:32;;;;;;;40.67;34.22;;;5.10;92.60;;;;;;5021083;28;20025;-70
2022/11/13 06:38:58;;;;;;;45.22;36.58;;;5.10;92.60;;;;;;5025479;28;20025;-69
2022/11/13 06:41:28;;;;;;;45.03;36.92;;;5.10;92.50;;;;;;5020885;28;20033;-70
2022/11/13 06:43:54;;;;;;;41.50;35.88;;;5.10;92.70;;;;;;5018833;28;20433;-68
2022/11/13 06:46:22;;;;;;;77.97;42.25;;;5.10;92.70;;;;;;5018642;28;20037;-70
2022/11/13 06:48:48;;;;;;;41.15;36.08;;;5.00;92.70;;;;;;5022633;28;20033;-70
2022/11/13 06:51:19;;;;;;;43.40;36.33;;;5.10;92.80;;;;;;5026224;28;20028;-68
2022/11/13 06:53:46;;;;;;;69.63;40.63;;;5.10;92.80;;;;;;5022291;28;20124;-68
2022/11/13 06:56:12;;;;;;;61.22;40.58;;;5.10;92.60;;;;;;5024454;28;20458;-69
2022/11/13 06:58:38;;;;;;;46.95;38.30;;;4.90;92.60;;;;;;5024105;28;20041;-69
2022/11/13 07:01:08;;;;;;;49.38;39.08;;;5.00;92.80;;;;;;5019887;28;20026;-73
2022/11/13 07:03:34;;;;;;;48.85;39.40;;;5.00;92.80;;;;;;5021701;28;20060;-72
2022/11/13 07:06:05;;;;;;;53.08;41.83;;;5.10;92.90;;;;;;5019646;28;20053;-73
2022/11/13 07:08:31;;;;;;;110.30;48.72;;;5.10;92.90;;;;;;5013768;28;20041;-73
2022/11/13 07:10:57;;;;;;;80.80;45.60;;;5.20;92.90;;;;;;5023164;28;20038;-73
2022/11/13 07:13:24;;;;;;;41.88;36.72;;;5.20;92.90;;;;;;5016059;28;20057;-75
2022/11/13 07:15:49;;;;;;;44.00;37.33;;;5.20;92.90;;;;;;5018743;28;20749;-74
2022/11/13 07:18:15;;;;;;;40.95;36.05;;;5.30;93.00;;;;;;5012547;28;20476;-73
2022/11/13 07:20:41;;;;;;;38.00;32.72;;;5.40;93.10;;;;;;5018398;28;20065;-74
2022/11/13 07:23:07;;;;;;;40.25;34.80;;;5.40;93.00;;;;;;5024278;28;20032;-73
2022/11/13 07:25:32;;;;;;;41.22;35.65;;;5.40;92.90;;;;;;5026075;28;20062;-73
2022/11/13 07:27:58;;;;;;;91.72;48.17;;;5.40;92.90;;;;;;5025286;28;20037;-74
2022/11/13 07:30:24;;;;;;;74.25;41.83;;;5.30;92.60;;;;;;5008988;28;20050;-80
2022/11/13 07:32:50;;;;;;;66.50;42.40;;;5.20;92.50;;;;;;5004927;28;20037;-73
2022/11/13 07:35:16;;;;;;;53.10;41.08;;;5.10;92.60;;;;;;5007329;28;20045;-74
2022/11/13 07:37:43;;;;;;;71.28;47.50;;;5.20;92.80;;;;;;5016708;28;20407;-73
2022/11/13 07:40:09;;;;;;;91.10;62.28;;;5.20;92.80;;;;;;5022187;28;20107;-74
2022/11/13 07:42:35;;;;;;;114.47;68.40;;;5.30;93.00;;;;;;5012539;28;20474;-73
2022/11/13 07:45:00;;;;;;;72.30;51.40;;;5.30;93.00;;;;;;5019123;28;20044;-75
2022/11/13 07:47:26;;;;;;;61.53;44.00;;;5.40;93.00;;;;;;5018776;28;20033;-73
2022/11/13 07:49:52;;;;;;;108.70;49.80;;;5.40;92.90;;;;;;5022581;28;20470;-76
2022/11/13 07:52:17;;;;;;;88.72;42.05;;;5.40;92.80;;;;;;5020657;28;20041;-74
2022/11/13 07:54:43;;;;;;;41.13;34.47;;;5.40;92.90;;;;;;5020353;28;20033;-75
2022/11/13 07:57:09;;;;;;;68.90;38.60;;;5.30;92.90;;;;;;5001663;28;20037;-75
2022/11/13 07:59:34;;;;;;;54.15;35.83;;;5.40;93.10;;;;;;5020376;28;20187;-73
2022/11/13 08:02:00;;;;;;;36.42;32.15;;;5.40;93.10;;;;;;5021350;28;20551;-74
2022/11/13 08:04:25;;;;;;;67.50;38.75;;;5.40;93.10;;;;;;5020863;28;20874;-75
2022/11/13 08:06:51;;;;;;;51.95;35.90;;;5.40;93.10;;;;;;5014404;28;20033;-75
2022/11/13 08:09:17;;;;;;;42.30;33.35;;;5.40;93.10;;;;;;5019194;28;20770;-73
2022/11/13 08:11:42;;;;;;;40.65;32.55;;;5.50;93.30;;;;;;4993609;28;20514;-74
2022/11/13 08:14:09;;;;;;;33.75;30.10;;;5.50;93.30;;;;;;4999913;28;20083;-78
2022/11/13 08:16:35;;;;;;;47.38;37.45;;;5.60;93.40;;;;;;5015031;28;20104;-73
2022/11/13 08:19:02;;;;;;;43.88;35.75;;;5.70;93.50;;;;;;4994998;28;20419;-75
2022/11/13 08:21:27;;;;;;;37.35;33.33;;;5.80;93.50;;;;;;5033059;28;20041;-79
2022/11/13 08:23:53;;;;;;;37.47;33.70;;;5.90;93.40;;;;;;5039113;28;20036;-73
2022/11/13 08:26:18;;;;;;;37.40;33.40;;;6.00;93.40;;;;;;5037237;28;20024;-75
2022/11/13 08:28:44;;;;;;;39.10;34.88;;;6.10;93.40;;;;;;5032981;28;20421;-74
2022/11/13 08:31:11;;;;;;;50.85;38.45;;;6.10;93.30;;;;;;5034709;28;20496;-75
2022/11/13 08:33:37;;;;;;;35.88;31.42;;;6.10;93.20;;;;;;5034248;28;20504;-73
2022/11/13 08:36:03;;;;;;;40.63;32.70;;;6.10;93.20;;;;;;5035751;28;20029;-72
2022/11/13 08:38:29;;;;;;;33.70;30.20;;;6.20;93.20;;;;;;5039102;28;20097;-73
2022/11/13 08:40:59;;;;;;;38.50;32.40;;;6.20;93.30;;;;;;5020449;28;20116;-75
2022/11/13 08:43:25;;;;;;;34.58;30.83;;;6.40;93.20;;;;;;5018008;28;20116;-78
2022/11/13 08:45:51;;;;;;;40.50;31.35;;;6.40;93.10;;;;;;5023223;28;20446;-73
2022/11/13 08:48:17;;;;;;;33.65;29.45;;;6.50;92.80;;;;;;5037397;28;20540;-74
2022/11/13 08:50:43;;;;;;;36.63;32.42;;;6.40;92.70;;;;;;5043028;28;20029;-72
2022/11/13 08:53:08;;;;;;;43.53;29.77;;;6.50;92.50;;;;;;5024074;28;20508;-74
2022/11/13 08:55:34;;;;;;;36.70;28.42;;;6.60;92.60;;;;;;5044536;28;20337;-80
2022/11/13 08:58:01;;;;;;;40.05;28.40;;;6.60;92.40;;;;;;5037344;28;20029;-76
2022/11/13 09:00:29;;;;;;;41.67;30.55;;;6.60;92.30;;;;;;5042429;28;20094;-78
2022/11/13 09:02:55;;;;;;;33.88;29.60;;;6.60;92.30;;;;;;5021100;28;20246;-74
2022/11/13 09:05:22;;;;;;;34.28;29.27;;;6.70;92.30;;;;;;5039689;28;20041;-74
2022/11/13 09:07:48;;;;;;;27.02;24.27;;;6.80;92.30;;;;;;5035271;28;20063;-73
2022/11/13 09:10:16;;;;;;;30.15;27.08;;;6.90;92.30;;;;;;5039041;28;20281;-77
2022/11/13 09:12:41;;;;;;;28.88;25.83;;;7.00;92.40;;;;;;5040690;28;20037;-77
2022/11/13 09:15:07;;;;;;;24.95;22.45;;;7.10;92.40;;;;;;5042337;28;20040;-73
2022/11/13 09:17:33;;;;;;;33.50;23.95;;;7.20;92.10;;;;;;5030269;28;20040;-75
2022/11/13 09:19:58;;;;;;;23.65;21.15;;;7.10;91.70;;;;;;5043823;28;20057;-73
2022/11/13 09:22:24;;;;;;;25.58;23.08;;;7.20;91.80;;;;;;5044945;28;20029;-80
2022/11/13 09:24:50;;;;;;;29.10;23.23;;;7.30;91.90;;;;;;5024908;28;20045;-73
2022/11/13 09:27:15;;;;;;;33.00;26.60;;;7.40;92.00;;;;;;5041058;28;20044;-76
2022/11/13 09:29:41;;;;;;;28.92;25.10;;;7.50;91.90;;;;;;5022173;28;20498;-72
2022/11/13 09:32:07;;;;;;;29.50;26.40;;;7.60;91.90;;;;;;5041644;28;20057;-75
2022/11/13 09:34:33;;;;;;;34.92;29.38;;;7.70;91.90;;;;;;5040365;28;20044;-74
2022/11/13 09:36:59;;;;;;;48.67;31.30;;;7.80;91.70;;;;;;5029058;28;20284;-72
2022/11/13 09:39:24;;;;;;;44.58;31.17;;;7.90;91.50;;;;;;5028376;28;20514;-75
2022/11/13 09:42:10;;;;;;;33.20;29.65;;;7.90;91.60;;;;;;5043297;28;20116;-75
2022/11/13 09:44:42;;;;;;;31.25;28.02;;;8.00;91.10;;;;;;5042993;28;20112;-76
2022/11/13 09:47:17;;;;;;;35.42;31.63;;;8.10;91.40;;;;;;5040149;28;20033;-74
2022/11/13 09:49:44;;;;;;;;;;;8.10;91.40;;;;;;5028339;28;20072;-73
2022/11/13 09:52:20;;;;;;;32.40;29.02;;;8.20;91.40;;;;;;5039262;28;19917;-73
2022/11/13 09:54:45;;;;;;;191.88;37.15;;;8.30;91.30;;;;;;5037326;28;20518;-73
2022/11/13 09:57:29;;;;;;;34.00;29.58;;;8.20;90.40;;;;;;5042123;28;20025;-74
2022/11/13 10:00:11;;;;;;;30.30;27.10;;;8.20;90.50;;;;;;5039268;28;20132;-74
2022/11/13 10:03:03;;;;;;;36.33;29.45;;;8.30;90.50;;;;;;5037918;28;20553;-72
2022/11/13 10:05:55;;;;;;;91.70;36.47;;;8.30;90.50;;;;;;5000219;28;20045;-75
2022/11/13 10:08:48;;;;;;;36.10;31.38;;;8.40;90.50;;;;;;5042194;28;20441;-73
2022/11/13 10:11:22;;;;;;;38.47;32.28;;;8.50;90.80;;;;;;5043682;28;20029;-72
2022/11/13 10:13:56;;;;;;;49.97;29.73;;;8.50;91.00;;;;;;5045679;28;20048;-74
2022/11/13 10:16:33;;;;;;;43.00;27.60;;;8.60;90.50;;;;;;5044009;28;20037;-73
2022/11/13 10:19:10;;;;;;;35.13;28.85;;;8.60;90.70;;;;;;5041110;28;20037;-73
2022/11/13 10:21:57;;;;;;;56.95;30.85;;;8.70;90.90;;;;;;5026973;28;20056;-72
2022/11/13 10:24:41;;;;;;;34.53;29.00;;;8.80;90.90;;;;;;5023854;28;20044;-78
2022/11/13 10:27:09;;;;;;;33.08;29.58;;;8.80;90.70;;;;;;5041806;28;20055;-73
2022/11/13 10:29:35;;;;;;;44.65;30.42;;;8.90;90.70;;;;;;5041047;28;20038;-74
2022/11/13 10:32:22;;;;;;;90.70;36.42;;;9.10;90.90;;;;;;5040525;28;20412;-75
2022/11/13 10:35:04;;;;;;;55.17;33.28;;;9.10;90.80;;;;;;5037953;28;20077;-77
2022/11/13 10:37:54;;;;;;;56.75;31.95;;;9.20;90.70;;;;;;5043465;28;20040;-76
2022/11/13 10:40:39;;;;;;;38.40;28.40;;;9.20;90.60;;;;;;5038924;28;20029;-76
2022/11/13 10:43:12;;;;;;;;;;;9.30;90.70;;;;;;5020591;28;20418;-78
2022/11/13 10:45:39;;;;;;;46.03;36.30;;;9.40;90.70;;;;;;5042802;28;19970;-72
2022/11/13 10:48:04;;;;;;;55.33;36.50;;;9.50;90.80;;;;;;5026765;28;20061;-75
2022/11/13 10:50:31;;;;;;;46.90;35.30;;;9.50;90.80;;;;;;5045930;28;20476;-73
2022/11/13 10:52:58;;;;;;;37.03;33.13;;;9.60;90.80;;;;;;5026978;28;20124;-73
2022/11/13 10:55:33;;;;;;;50.80;39.90;;;9.70;90.60;;;;;;5046120;28;20045;-73
2022/11/13 10:58:01;;;;;;;43.85;38.22;;;9.80;90.40;;;;;;5044357;28;20419;-73
2022/11/13 11:00:37;;;;;;;48.33;41.53;;;9.80;90.40;;;;;;5027344;28;20393;-76
2022/11/13 11:03:06;;;;;;;51.03;45.40;;;9.90;90.30;;;;;;5026428;28;20047;-82
2022/11/13 11:05:32;;;;;;;55.58;45.90;;;9.90;90.40;;;;;;5046345;28;20033;-73
2022/11/13 11:07:58;;;;;;;53.35;42.53;;;10.10;90.60;;;;;;5044331;28;20076;-79
2022/11/13 11:10:35;;;;;;;52.15;43.70;;;10.20;90.50;;;;;;5045759;28;20135;-78
2022/11/13 11:13:19;;;;;;;49.03;40.97;;;10.30;90.50;;;;;;5044724;28;20099;-72
2022/11/13 11:15:58;;;;;;;40.10;33.67;;;10.60;91.00;;;;;;5042465;28;20140;-81
2022/11/13 11:18:31;;;;;;;38.25;33.15;;;10.70;90.10;;;;;;5043031;28;20037;-75
2022/11/13 11:20:58;;;;;;;38.60;31.77;;;10.60;89.60;;;;;;5041021;28;20551;-75
2022/11/13 11:23:36;;;;;;;40.28;31.75;;;10.60;89.50;;;;;;5033563;28;20073;-82
2022/11/13 11:26:12;;;;;;;42.10;34.85;;;10.60;89.70;;;;;;5045007;28;20090;-75
2022/11/13 11:28:52;;;;;;;40.88;33.28;;;10.60;89.10;;;;;;5043957;28;20028;-73
2022/11/13 11:31:49;;;;;;;37.40;33.08;;;10.90;90.00;;;;;;5023353;28;20040;-75
2022/11/13 11:34:24;;;;;;;37.72;31.90;;;11.10;89.60;;;;;;5042963;28;20052;-74
2022/11/13 11:37:04;;;;;;;39.67;33.60;;;11.10;89.10;;;;;;5025741;28;20037;-73
2022/11/13 11:39:50;;;;;;;45.67;40.03;;;11.20;88.30;;;;;;5044688;28;20098;-73
2022/11/13 11:42:28;;;;;;;40.55;36.13;;;11.10;88.30;;;;;;5042922;28;20040;-72
2022/11/13 11:45:25;;;;;;;37.33;33.17;;;11.20;88.00;;;;;;5045472;28;20079;-72
2022/11/13 11:47:52;;;;;;;35.05;31.10;;;11.20;87.90;;;;;;5014561;28;20195;-79
2022/11/13 11:51:03;;;;;;;38.05;33.95;;;11.30;87.80;;;;;;5046915;28;20106;-74
2022/11/13 11:54:02;;;;;;;36.13;32.25;;;11.50;88.20;;;;;;5023880;28;20040;-73
2022/11/13 11:56:44;;;;;;;36.20;32.20;;;11.50;87.20;;;;;;5029905;28;20064;-74
2022/11/13 11:59:25;;;;;;;36.10;31.90;;;11.60;87.30;;;;;;5045183;28;20041;-77
2022/11/13 12:02:19;;;;;;;33.63;30.02;;;11.80;87.20;;;;;;5041282;28;20048;-79
2022/11/13 12:05:21;;;;;;;37.30;31.80;;;11.80;86.50;;;;;;5042367;28;20037;-85
2022/11/13 12:07:58;;;;;;;34.90;31.20;;;11.90;87.10;;;;;;5041246;28;20037;-74
2022/11/13 12:11:25;;;;;;;37.60;32.67;;;11.90;86.60;;;;;;5047419;28;20041;-85
2022/11/13 12:13:54;;;;;;;40.10;34.85;;;11.80;86.60;;;;;;4997168;28;20090;-78
2022/11/13 12:16:47;;;;;;;39.17;34.03;;;11.70;87.20;;;;;;5015384;28;20040;-77
2022/11/13 12:19:32;;;;;;;43.20;36.17;;;11.40;87.60;;;;;;5042321;28;20048;-72
2022/11/13 12:22:14;;;;;;;;;;;11.20;88.80;;;;;;5044896;28;20072;-73
2022/11/13 12:24:53;;;;;;;43.75;38.97;;;11.10;89.00;;;;;;5028063;28;19991;-77
2022/11/13 12:27:40;;;;;;;43.90;39.08;;;11.10;89.30;;;;;;5040658;28;20037;-87
2022/11/13 12:30:17;;;;;;;40.72;36.30;;;11.30;89.90;;;;;;5045603;28;20500;-74
2022/11/13 12:32:45;;;;;;;41.65;37.10;;;11.30;89.40;;;;;;5047378;28;20047;-73
2022/11/13 12:35:19;;;;;;;39.95;35.75;;;11.30;89.40;;;;;;5030672;28;20076;-72
2022/11/13 12:37:51;;;;;;;43.17;38.47;;;11.30;89.70;;;;;;5029220;28;20041;-74
2022/11/13 12:40:25;;;;;;;43.42;38.85;;;11.40;89.70;;;;;;5035349;28;20377;-75
2022/11/13 12:43:25;;;;;;;42.80;38.17;;;11.30;89.30;;;;;;5048222;28;20103;-75
2022/11/13 12:46:04;;;;;;;43.28;38.97;;;11.40;89.60;;;;;;5046954;28;20051;-79
2022/11/13 12:48:40;;;;;;;42.85;38.22;;;11.40;89.30;;;;;;5029216;28;20115;-75
2022/11/13 12:51:09;;;;;;;38.85;34.92;;;11.50;89.70;;;;;;5044660;28;20385;-77